Terminal Aerodrome Forecast
Issued by NWS San Angelo, TX

Home | Current Version | Previous Version | Text Only | Print | Product List | Glossary On
Versions: 1 2 3 4 5 6 7 8 9 10 11 12 13 14 15 16 17 18 19 20 21 22 23 24 25 26 27 28 29 30 31 32 33 34 35
155
FTUS44 KSJT 170534
TAFABI
TAF
KABI 170534Z 1706/1806 01008KT P6SM BKN250
     FM171500 02010KT P6SM BKN100
     FM172100 04008KT P6SM -RA SCT020 BKN040
      TEMPO 1722/1724 5SM -RA BR OVC015
     FM180200 04005KT 3SM -RA BR OVC009=

USA.gov is the U.S. government's official web portal to all federal, state and local government web resources and services.